createdAt,value
2019-04-12T00:04:05.485Z,8.50
2019-04-12T00:09:07.449Z,8.60
2019-04-12T00:14:07.145Z,8.40
2019-04-12T00:19:06.853Z,8.30
2019-04-12T00:24:06.469Z,8.20
2019-04-12T00:29:06.123Z,8.20
2019-04-12T00:34:06.054Z,8.10
2019-04-12T00:39:07.522Z,7.90
2019-04-12T00:44:07.737Z,7.90
2019-04-12T00:49:10.300Z,7.60
2019-04-12T00:54:09.964Z,7.50
2019-04-12T00:59:09.906Z,7.60
2019-04-12T01:04:18.474Z,7.50
2019-04-12T01:09:22.163Z,7.40
2019-04-12T01:14:19.472Z,7.50
2019-04-12T01:19:19.170Z,7.50
2019-04-12T01:24:18.858Z,7.50
2019-04-12T01:29:18.647Z,7.40
2019-04-12T01:34:18.665Z,7.10
2019-04-12T01:39:18.289Z,6.90
2019-04-12T01:44:17.913Z,6.80
2019-04-12T01:49:17.521Z,7.00
2019-04-12T01:54:17.157Z,7.10
2019-04-12T01:59:16.772Z,7.20
2019-04-12T02:04:16.373Z,7.20
2019-04-12T02:09:16.002Z,7.40
2019-04-12T02:14:15.861Z,7.50
2019-04-12T02:19:15.502Z,7.50
2019-04-12T02:24:16.122Z,7.60
2019-04-12T02:29:15.771Z,7.60
2019-04-12T02:34:15.942Z,7.50
2019-04-12T02:39:15.937Z,7.40
2019-04-12T02:44:17.331Z,7.40
2019-04-12T02:49:24.673Z,7.40
2019-04-12T02:54:40.441Z,7.40
2019-04-12T02:59:41.067Z,7.30
2019-04-12T03:04:40.867Z,7.20
2019-04-12T03:09:41.767Z,7.20
2019-04-12T03:14:42.434Z,7.10
2019-04-12T03:19:43.002Z,7.10
2019-04-12T03:24:42.786Z,6.90
2019-04-12T03:29:42.490Z,6.80
2019-04-12T03:34:42.276Z,6.70
2019-04-12T03:39:42.250Z,6.80
2019-04-12T03:44:42.159Z,6.90
2019-04-12T03:49:42.090Z,7.00
2019-04-12T03:54:42.501Z,7.10
2019-04-12T03:59:42.361Z,6.90
2019-04-12T04:04:42.190Z,6.90
2019-04-12T04:09:42.468Z,7.00
2019-04-12T04:14:43.516Z,6.90
2019-04-12T04:19:52.912Z,7.00
2019-04-12T04:24:56.666Z,6.90
2019-04-12T04:30:15.851Z,6.80
2019-04-12T04:35:16.569Z,6.60
2019-04-12T04:40:17.736Z,6.70
2019-04-12T04:45:17.939Z,6.90
2019-04-12T04:50:17.714Z,6.90
2019-04-12T04:55:17.442Z,7.00
2019-04-12T05:00:17.646Z,7.10
2019-04-12T05:05:17.411Z,7.00
2019-04-12T05:10:17.113Z,7.20
2019-04-12T05:15:16.814Z,7.30
2019-04-12T05:20:16.726Z,7.30
2019-04-12T05:25:16.482Z,7.20
2019-04-12T05:30:16.478Z,7.10
2019-04-12T05:35:16.955Z,7.20
2019-04-12T05:40:17.118Z,7.30
2019-04-12T05:45:20.246Z,7.10
2019-04-12T05:50:29.298Z,7.20
2019-04-12T05:55:29.725Z,7.20
2019-04-12T06:00:38.175Z,7.10
2019-04-12T06:05:38.113Z,7.20
2019-04-12T06:10:37.755Z,7.20
2019-04-12T06:15:37.546Z,7.20
2019-04-12T06:20:42.505Z,7.10
2019-04-12T06:25:53.842Z,7.20
2019-04-12T06:30:55.377Z,7.20
2019-04-12T06:35:55.213Z,7.30
2019-04-12T06:40:55.009Z,7.30
2019-04-12T06:45:54.891Z,7.40
2019-04-12T06:50:58.670Z,7.50
2019-04-12T06:56:11.783Z,7.60
2019-04-12T07:01:16.839Z,7.80
2019-04-12T07:06:16.616Z,7.90
2019-04-12T07:11:16.318Z,8.00
2019-04-12T07:16:16.060Z,8.00
2019-04-12T07:21:15.810Z,8.20
2019-04-12T07:26:15.606Z,8.20
2019-04-12T07:31:15.274Z,8.30
2019-04-12T07:36:14.910Z,8.40
2019-04-12T07:41:14.510Z,8.70
2019-04-12T07:46:14.163Z,8.90
2019-04-12T07:51:45.410Z,9.00
2019-04-12T07:56:46.282Z,9.30
2019-04-12T08:02:04.452Z,9.60
2019-04-12T08:07:12.391Z,9.80
2019-04-12T08:12:12.620Z,10.20
2019-04-12T08:17:12.415Z,10.40
2019-04-12T08:22:12.479Z,10.70
2019-04-12T08:27:12.203Z,10.70
2019-04-12T08:32:11.838Z,10.80
2019-04-12T08:37:12.829Z,10.70
2019-04-12T08:42:13.141Z,10.90
2019-04-12T08:47:14.093Z,11.20
2019-04-12T08:52:13.972Z,11.30
2019-04-12T08:57:13.670Z,11.40
2019-04-12T09:02:13.371Z,11.50
2019-04-12T09:07:13.107Z,11.50
2019-04-12T09:12:15.309Z,11.30
2019-04-12T09:17:14.170Z,11.30
2019-04-12T09:22:42.709Z,11.50
2019-04-12T09:27:42.470Z,11.40
2019-04-12T09:32:42.134Z,11.40
2019-04-12T09:37:41.831Z,11.50
2019-04-12T09:42:41.480Z,11.70
2019-04-12T09:47:41.531Z,11.70
2019-04-12T09:52:41.218Z,11.90
2019-04-12T09:57:40.888Z,11.90
2019-04-12T10:02:40.518Z,11.70
2019-04-12T10:07:40.576Z,11.50
2019-04-12T10:12:41.170Z,11.70
2019-04-12T10:17:41.154Z,11.80
2019-04-12T10:22:40.809Z,12.00
2019-04-12T10:27:42.626Z,12.00
2019-04-12T10:32:42.582Z,11.90
2019-04-12T10:37:42.278Z,11.80
2019-04-12T10:42:42.335Z,11.70
2019-04-12T10:47:50.223Z,11.80
2019-04-12T10:53:08.986Z,11.60
2019-04-12T10:58:08.981Z,11.50
2019-04-12T11:03:08.686Z,11.60
2019-04-12T11:08:08.603Z,11.90
2019-04-12T11:13:08.306Z,12.00
2019-04-12T11:18:23.078Z,12.20
2019-04-12T11:23:22.758Z,12.30
2019-04-12T11:28:22.470Z,12.40
2019-04-12T11:33:22.115Z,12.40
2019-04-12T11:38:21.755Z,12.50
2019-04-12T11:43:21.651Z,12.60
2019-04-12T11:48:21.583Z,12.70
2019-04-12T11:53:21.218Z,12.80
2019-04-12T11:58:36.362Z,12.80
2019-04-12T12:03:34.334Z,12.80
2019-04-12T12:08:59.274Z,12.80
2019-04-12T12:14:16.917Z,12.70
2019-04-12T12:19:17.355Z,12.60
2019-04-12T12:24:17.342Z,12.50
2019-04-12T12:29:16.979Z,12.40
2019-04-12T12:34:16.648Z,12.40
2019-04-12T12:39:16.271Z,12.40
2019-04-12T12:44:16.342Z,12.30
2019-04-12T12:49:15.988Z,12.20
2019-04-12T12:54:15.690Z,12.30
2019-04-12T12:59:15.330Z,12.30
2019-04-12T13:04:14.974Z,12.50
2019-04-12T13:09:14.751Z,12.60
2019-04-12T13:14:14.404Z,12.70
2019-04-12T13:19:14.065Z,12.80
2019-04-12T13:24:13.781Z,12.80
2019-04-12T13:29:13.638Z,12.50
2019-04-12T13:34:32.530Z,12.30
2019-04-12T13:40:12.070Z,12.00
2019-04-12T13:45:13.542Z,11.90
2019-04-12T13:50:13.279Z,11.80
2019-04-12T13:55:13.082Z,11.50
2019-04-12T14:00:19.198Z,11.30
2019-04-12T14:05:17.543Z,11.30
2019-04-12T14:10:17.957Z,11.40
2019-04-12T14:15:18.109Z,11.20
2019-04-12T14:20:17.945Z,11.10
2019-04-12T14:25:17.975Z,11.10
2019-04-12T14:30:34.646Z,11.20
2019-04-12T14:35:40.119Z,11.30
2019-04-12T14:40:42.951Z,11.20
2019-04-12T14:46:12.486Z,11.30
2019-04-12T14:51:12.374Z,11.30
2019-04-12T14:56:12.019Z,11.30
2019-04-12T15:01:12.628Z,11.20
2019-04-12T15:06:12.410Z,11.20
2019-04-12T15:11:12.074Z,11.10
2019-04-12T15:16:11.743Z,11.00
2019-04-12T15:21:11.478Z,11.00
2019-04-12T15:26:11.263Z,10.80
2019-04-12T15:31:10.966Z,10.80
2019-04-12T15:36:11.203Z,10.80
2019-04-12T15:41:11.262Z,10.90
2019-04-12T15:46:11.104Z,11.10
2019-04-12T15:51:10.813Z,11.00
2019-04-12T15:56:10.686Z,10.90
2019-04-12T16:01:17.182Z,10.80
2019-04-12T16:06:17.353Z,10.50
2019-04-12T16:11:19.182Z,10.00
2019-04-12T16:16:53.375Z,9.80
2019-04-12T16:21:53.008Z,9.60
2019-04-12T16:26:56.034Z,9.50
2019-04-12T16:32:15.075Z,9.50
2019-04-12T16:37:26.342Z,9.40
2019-04-12T16:42:26.310Z,9.30
2019-04-12T16:47:26.258Z,9.20
2019-04-12T16:52:26.198Z,9.10
2019-04-12T16:57:25.842Z,8.90
2019-04-12T17:02:25.605Z,8.70
2019-04-12T17:07:25.527Z,8.70
2019-04-12T17:12:26.470Z,8.60
2019-04-12T17:17:26.157Z,8.60
2019-04-12T17:22:25.867Z,8.40
2019-04-12T17:27:25.800Z,8.20
2019-04-12T17:32:25.489Z,8.20
2019-04-12T17:37:25.312Z,8.30
2019-04-12T17:42:25.050Z,8.10
2019-04-12T17:47:24.994Z,8.20
2019-04-12T17:52:43.734Z,8.10
2019-04-12T17:57:43.398Z,8.00
2019-04-12T18:02:44.232Z,8.00
2019-04-12T18:07:43.898Z,8.10
2019-04-12T18:12:44.554Z,8.00
2019-04-12T18:17:44.389Z,7.90
2019-04-12T18:22:44.035Z,7.90
2019-04-12T18:27:43.967Z,8.10
2019-04-12T18:32:43.602Z,8.30
2019-04-12T18:37:43.487Z,8.30
2019-04-12T18:42:43.126Z,8.50
2019-04-12T18:47:42.838Z,8.50
2019-04-12T18:52:42.474Z,8.30
2019-04-12T18:57:42.102Z,7.90
2019-04-12T19:02:41.759Z,7.70
2019-04-12T19:07:42.595Z,7.50
2019-04-12T19:12:42.498Z,7.10
2019-04-12T19:17:42.199Z,7.10
2019-04-12T19:22:41.834Z,7.20
2019-04-12T19:27:42.304Z,7.10
2019-04-12T19:32:49.242Z,6.90
2019-04-12T19:38:17.626Z,6.80
2019-04-12T19:43:17.474Z,6.80
2019-04-12T19:48:17.201Z,6.80
2019-04-12T19:53:16.886Z,6.90
2019-04-12T19:58:16.975Z,7.00
2019-04-12T20:03:17.337Z,7.10
2019-04-12T20:08:17.274Z,7.00
2019-04-12T20:13:17.210Z,7.00
2019-04-12T20:18:17.360Z,6.90
2019-04-12T20:23:17.460Z,7.10
2019-04-12T20:28:17.094Z,7.50
2019-04-12T20:33:16.765Z,7.70
2019-04-12T20:38:16.502Z,7.70
2019-04-12T20:43:16.155Z,7.70
2019-04-12T20:48:15.791Z,7.50
2019-04-12T20:53:16.684Z,7.30
2019-04-12T20:58:16.399Z,7.40
2019-04-12T21:03:16.811Z,7.30
2019-04-12T21:08:17.727Z,7.40
2019-04-12T21:13:17.741Z,7.70
2019-04-12T21:18:17.539Z,8.00
2019-04-12T21:23:17.205Z,8.00
2019-04-12T21:28:17.080Z,7.90
2019-04-12T21:33:27.833Z,8.00
2019-04-12T21:38:18.080Z,8.00
2019-04-12T21:43:17.783Z,8.00
2019-04-12T21:48:17.411Z,7.80
2019-04-12T21:53:17.092Z,7.90
2019-04-12T21:58:16.746Z,8.00
2019-04-12T22:03:16.945Z,8.00
2019-04-12T22:08:17.146Z,8.00
2019-04-12T22:13:17.035Z,8.20
2019-04-12T22:18:16.686Z,8.00
2019-04-12T22:23:16.637Z,8.00
2019-04-12T22:28:16.270Z,7.90
2019-04-12T22:33:15.930Z,7.90
2019-04-12T22:38:15.578Z,7.90
2019-04-12T22:43:15.533Z,7.70
2019-04-12T22:48:15.841Z,7.70
2019-04-12T22:53:15.471Z,7.80
2019-04-12T22:58:15.355Z,7.70
2019-04-12T23:03:14.998Z,7.50
2019-04-12T23:08:15.008Z,7.40
2019-04-12T23:13:15.230Z,7.40
2019-04-12T23:18:14.870Z,7.40
2019-04-12T23:23:14.498Z,7.40
2019-04-12T23:28:15.450Z,7.50
2019-04-12T23:33:16.439Z,7.60
2019-04-12T23:38:16.074Z,7.60
2019-04-12T23:43:16.002Z,7.40
2019-04-12T23:48:15.630Z,7.20
2019-04-12T23:53:15.290Z,7.00
2019-04-12T23:58:15.194Z,7.00
